Center Cambridge, New York
Current Conditions -  °F | °C
As of 5:54 AM on Wednesday 22 Oct 2014 (Local Time) from KDDH Reporting Station
Overcast Overcast  
Wind Chill: 51°   Ceiling: 2000
Heat Index: 51°   Visibility: 10mi
Dew Point: 45°   Wind: 0mph
Humidity: 80%   Direction: NA
Pressure: 30.02"   Gusts: NA
Location:  43.0594°N, 73.3734°W
Report Text: KDDH 220954Z AUTO 00000KT 10SM OVC020 11/07 A3002 RMK AO2 SLP168 T01060072
Loading
Personal Weather Stations






























Interactive Weather Map
Tropical Storm Tracking
New forecast layout! Learn more

10-Day Weather Forecast

Advertisements
Track Severe Weather on mobile